sensor_id;sensor_type;location;lat;lon;timestamp;P1;durP1;ratioP1;P2;durP2;ratioP2
77010;SDS011;65945;53.148;17.956;2024-01-10T00:00:18;45.20;;;18.20;;
77010;SDS011;65945;53.148;17.956;2024-01-10T00:03:04;49.40;;;19.20;;
77010;SDS011;65945;53.148;17.956;2024-01-10T00:05:31;56.60;;;20.10;;
77010;SDS011;65945;53.148;17.956;2024-01-10T00:07:58;53.10;;;21.50;;
77010;SDS011;65945;53.148;17.956;2024-01-10T00:10:24;49.60;;;21.10;;
77010;SDS011;65945;53.148;17.956;2024-01-10T00:12:51;52.30;;;21.30;;
77010;SDS011;65945;53.148;17.956;2024-01-10T00:15:17;51.60;;;20.70;;
77010;SDS011;65945;53.148;17.956;2024-01-10T00:17:44;49.40;;;18.70;;
77010;SDS011;65945;53.148;17.956;2024-01-10T00:20:11;47.10;;;18.80;;
77010;SDS011;65945;53.148;17.956;2024-01-10T00:22:37;44.20;;;17.50;;
77010;SDS011;65945;53.148;17.956;2024-01-10T00:25:04;52.40;;;20.60;;
77010;SDS011;65945;53.148;17.956;2024-01-10T00:27:31;55.00;;;20.20;;
77010;SDS011;65945;53.148;17.956;2024-01-10T00:29:57;52.10;;;20.50;;
77010;SDS011;65945;53.148;17.956;2024-01-10T00:32:24;61.20;;;21.40;;
77010;SDS011;65945;53.148;17.956;2024-01-10T00:34:50;52.60;;;20.70;;
77010;SDS011;65945;53.148;17.956;2024-01-10T00:37:17;44.80;;;18.10;;
77010;SDS011;65945;53.148;17.956;2024-01-10T00:39:43;49.60;;;17.60;;
77010;SDS011;65945;53.148;17.956;2024-01-10T00:42:10;49.80;;;19.60;;
77010;SDS011;65945;53.148;17.956;2024-01-10T00:44:37;46.30;;;18.00;;
77010;SDS011;65945;53.148;17.956;2024-01-10T00:47:03;45.20;;;17.70;;
77010;SDS011;65945;53.148;17.956;2024-01-10T00:49:30;45.00;;;18.20;;
77010;SDS011;65945;53.148;17.956;2024-01-10T00:51:56;45.30;;;18.50;;
77010;SDS011;65945;53.148;17.956;2024-01-10T00:54:23;44.40;;;17.60;;
77010;SDS011;65945;53.148;17.956;2024-01-10T00:56:50;45.70;;;17.90;;
77010;SDS011;65945;53.148;17.956;2024-01-10T00:59:17;41.80;;;17.20;;
77010;SDS011;65945;53.148;17.956;2024-01-10T01:01:43;42.60;;;17.10;;
77010;SDS011;65945;53.148;17.956;2024-01-10T01:04:10;49.70;;;20.60;;
77010;SDS011;65945;53.148;17.956;2024-01-10T01:06:37;44.60;;;19.50;;
77010;SDS011;65945;53.148;17.956;2024-01-10T01:09:03;47.70;;;18.20;;
77010;SDS011;65945;53.148;17.956;2024-01-10T01:11:30;53.60;;;21.90;;
77010;SDS011;65945;53.148;17.956;2024-01-10T01:13:56;48.30;;;19.50;;
77010;SDS011;65945;53.148;17.956;2024-01-10T01:16:23;45.30;;;19.60;;
77010;SDS011;65945;53.148;17.956;2024-01-10T01:18:50;49.40;;;19.60;;
77010;SDS011;65945;53.148;17.956;2024-01-10T01:21:16;49.00;;;19.30;;
77010;SDS011;65945;53.148;17.956;2024-01-10T01:23:43;48.00;;;19.70;;
77010;SDS011;65945;53.148;17.956;2024-01-10T01:26:10;44.30;;;18.60;;
77010;SDS011;65945;53.148;17.956;2024-01-10T01:28:36;38.60;;;16.20;;
77010;SDS011;65945;53.148;17.956;2024-01-10T01:31:03;46.70;;;17.20;;
77010;SDS011;65945;53.148;17.956;2024-01-10T01:33:30;48.50;;;19.70;;
77010;SDS011;65945;53.148;17.956;2024-01-10T01:35:56;47.50;;;18.30;;
77010;SDS011;65945;53.148;17.956;2024-01-10T01:38:23;45.00;;;19.10;;
77010;SDS011;65945;53.148;17.956;2024-01-10T01:40:50;50.30;;;19.60;;
77010;SDS011;65945;53.148;17.956;2024-01-10T01:43:23;52.10;;;20.50;;
77010;SDS011;65945;53.148;17.956;2024-01-10T01:45:52;47.50;;;19.40;;
77010;SDS011;65945;53.148;17.956;2024-01-10T01:48:21;61.30;;;20.80;;
77010;SDS011;65945;53.148;17.956;2024-01-10T01:50:50;42.50;;;18.10;;
77010;SDS011;65945;53.148;17.956;2024-01-10T01:53:20;45.50;;;18.30;;
77010;SDS011;65945;53.148;17.956;2024-01-10T01:55:46;47.00;;;18.00;;
77010;SDS011;65945;53.148;17.956;2024-01-10T01:58:13;53.50;;;20.20;;
77010;SDS011;65945;53.148;17.956;2024-01-10T02:00:40;52.50;;;18.80;;
77010;SDS011;65945;53.148;17.956;2024-01-10T02:03:10;44.60;;;19.20;;
77010;SDS011;65945;53.148;17.956;2024-01-10T02:05:37;51.10;;;19.10;;
77010;SDS011;65945;53.148;17.956;2024-01-10T02:08:04;52.20;;;20.40;;
77010;SDS011;65945;53.148;17.956;2024-01-10T02:10:30;50.80;;;20.90;;
77010;SDS011;65945;53.148;17.956;2024-01-10T02:12:57;58.50;;;23.00;;
77010;SDS011;65945;53.148;17.956;2024-01-10T02:15:24;55.60;;;21.80;;
77010;SDS011;65945;53.148;17.956;2024-01-10T02:17:50;65.40;;;22.60;;
77010;SDS011;65945;53.148;17.956;2024-01-10T02:20:17;48.70;;;20.30;;
77010;SDS011;65945;53.148;17.956;2024-01-10T02:22:44;48.70;;;21.80;;
77010;SDS011;65945;53.148;17.956;2024-01-10T02:25:11;43.00;;;14.50;;
77010;SDS011;65945;53.148;17.956;2024-01-10T02:27:40;55.40;;;23.20;;
77010;SDS011;65945;53.148;17.956;2024-01-10T02:30:07;58.10;;;21.80;;
77010;SDS011;65945;53.148;17.956;2024-01-10T02:32:35;60.00;;;23.00;;
77010;SDS011;65945;53.148;17.956;2024-01-10T02:35:03;51.50;;;21.00;;
77010;SDS011;65945;53.148;17.956;2024-01-10T02:37:31;56.30;;;21.30;;
77010;SDS011;65945;53.148;17.956;2024-01-10T02:39:57;51.00;;;20.70;;
77010;SDS011;65945;53.148;17.956;2024-01-10T02:42:24;51.60;;;21.20;;
77010;SDS011;65945;53.148;17.956;2024-01-10T02:44:51;45.80;;;18.50;;
77010;SDS011;65945;53.148;17.956;2024-01-10T02:47:17;43.50;;;16.70;;
77010;SDS011;65945;53.148;17.956;2024-01-10T02:49:44;47.00;;;17.30;;
77010;SDS011;65945;53.148;17.956;2024-01-10T02:52:10;47.70;;;18.10;;
77010;SDS011;65945;53.148;17.956;2024-01-10T02:54:37;46.90;;;19.70;;
77010;SDS011;65945;53.148;17.956;2024-01-10T02:57:03;55.90;;;22.50;;
77010;SDS011;65945;53.148;17.956;2024-01-10T02:59:30;57.80;;;21.00;;
77010;SDS011;65945;53.148;17.956;2024-01-10T03:01:57;54.20;;;22.20;;
77010;SDS011;65945;53.148;17.956;2024-01-10T03:04:23;61.40;;;22.40;;
77010;SDS011;65945;53.148;17.956;2024-01-10T03:06:50;63.30;;;23.90;;
77010;SDS011;65945;53.148;17.956;2024-01-10T03:09:17;54.80;;;20.40;;
77010;SDS011;65945;53.148;17.956;2024-01-10T03:11:43;55.20;;;22.00;;
77010;SDS011;65945;53.148;17.956;2024-01-10T03:14:10;49.60;;;18.40;;
77010;SDS011;65945;53.148;17.956;2024-01-10T03:16:37;58.60;;;21.40;;
77010;SDS011;65945;53.148;17.956;2024-01-10T03:19:04;56.70;;;20.40;;
77010;SDS011;65945;53.148;17.956;2024-01-10T03:21:31;52.00;;;19.80;;
77010;SDS011;65945;53.148;17.956;2024-01-10T03:24:00;61.20;;;21.40;;
77010;SDS011;65945;53.148;17.956;2024-01-10T03:26:27;56.80;;;21.40;;
77010;SDS011;65945;53.148;17.956;2024-01-10T03:28:54;63.50;;;23.50;;
77010;SDS011;65945;53.148;17.956;2024-01-10T03:31:21;63.30;;;23.70;;
77010;SDS011;65945;53.148;17.956;2024-01-10T03:33:47;76.80;;;26.60;;
77010;SDS011;65945;53.148;17.956;2024-01-10T03:36:15;72.00;;;24.30;;
77010;SDS011;65945;53.148;17.956;2024-01-10T03:38:43;62.90;;;23.20;;
77010;SDS011;65945;53.148;17.956;2024-01-10T03:41:14;57.50;;;23.00;;
77010;SDS011;65945;53.148;17.956;2024-01-10T03:43:41;55.70;;;20.60;;
77010;SDS011;65945;53.148;17.956;2024-01-10T03:46:08;59.70;;;22.50;;
77010;SDS011;65945;53.148;17.956;2024-01-10T03:48:36;58.90;;;21.80;;
77010;SDS011;65945;53.148;17.956;2024-01-10T03:51:15;56.40;;;19.30;;
77010;SDS011;65945;53.148;17.956;2024-01-10T03:53:43;60.30;;;21.70;;
77010;SDS011;65945;53.148;17.956;2024-01-10T03:56:11;63.00;;;20.80;;
77010;SDS011;65945;53.148;17.956;2024-01-10T03:58:38;53.50;;;19.80;;
77010;SDS011;65945;53.148;17.956;2024-01-10T04:01:06;45.00;;;15.80;;
77010;SDS011;65945;53.148;17.956;2024-01-10T04:03:33;61.80;;;21.60;;
77010;SDS011;65945;53.148;17.956;2024-01-10T04:06:01;40.70;;;15.80;;
77010;SDS011;65945;53.148;17.956;2024-01-10T04:08:29;49.60;;;20.50;;
77010;SDS011;65945;53.148;17.956;2024-01-10T04:10:56;54.20;;;20.90;;
77010;SDS011;65945;53.148;17.956;2024-01-10T04:13:22;38.30;;;15.20;;
77010;SDS011;65945;53.148;17.956;2024-01-10T04:15:49;54.40;;;19.80;;
77010;SDS011;65945;53.148;17.956;2024-01-10T04:18:16;48.00;;;18.40;;
77010;SDS011;65945;53.148;17.956;2024-01-10T04:20:42;56.90;;;20.50;;
77010;SDS011;65945;53.148;17.956;2024-01-10T04:23:10;52.20;;;19.90;;
77010;SDS011;65945;53.148;17.956;2024-01-10T04:25:36;50.60;;;17.80;;
77010;SDS011;65945;53.148;17.956;2024-01-10T04:28:03;52.10;;;19.80;;
77010;SDS011;65945;53.148;17.956;2024-01-10T04:30:30;50.90;;;20.20;;
77010;SDS011;65945;53.148;17.956;2024-01-10T04:32:56;50.50;;;20.90;;
77010;SDS011;65945;53.148;17.956;2024-01-10T04:35:23;53.20;;;20.80;;
77010;SDS011;65945;53.148;17.956;2024-01-10T04:37:50;59.00;;;24.10;;
77010;SDS011;65945;53.148;17.956;2024-01-10T04:40:16;56.20;;;21.80;;
77010;SDS011;65945;53.148;17.956;2024-01-10T04:42:44;49.80;;;20.50;;
77010;SDS011;65945;53.148;17.956;2024-01-10T04:45:10;50.10;;;19.60;;
77010;SDS011;65945;53.148;17.956;2024-01-10T04:47:37;32.20;;;13.60;;
77010;SDS011;65945;53.148;17.956;2024-01-10T04:50:04;54.90;;;21.40;;
77010;SDS011;65945;53.148;17.956;2024-01-10T04:52:31;57.10;;;20.40;;
77010;SDS011;65945;53.148;17.956;2024-01-10T04:54:57;48.30;;;17.20;;
77010;SDS011;65945;53.148;17.956;2024-01-10T04:57:24;58.30;;;19.10;;
77010;SDS011;65945;53.148;17.956;2024-01-10T04:59:51;61.10;;;20.10;;
77010;SDS011;65945;53.148;17.956;2024-01-10T05:02:18;50.90;;;19.20;;
77010;SDS011;65945;53.148;17.956;2024-01-10T05:04:48;49.70;;;18.50;;
77010;SDS011;65945;53.148;17.956;2024-01-10T05:07:15;50.90;;;16.30;;
77010;SDS011;65945;53.148;17.956;2024-01-10T05:09:42;43.10;;;15.00;;
77010;SDS011;65945;53.148;17.956;2024-01-10T05:12:08;51.00;;;19.20;;
77010;SDS011;65945;53.148;17.956;2024-01-10T05:14:35;60.70;;;20.00;;
77010;SDS011;65945;53.148;17.956;2024-01-10T05:17:02;49.10;;;18.40;;
77010;SDS011;65945;53.148;17.956;2024-01-10T05:19:29;49.70;;;20.50;;
77010;SDS011;65945;53.148;17.956;2024-01-10T05:21:56;50.80;;;18.90;;
77010;SDS011;65945;53.148;17.956;2024-01-10T05:24:23;52.80;;;18.10;;
77010;SDS011;65945;53.148;17.956;2024-01-10T05:26:51;56.80;;;20.20;;
77010;SDS011;65945;53.148;17.956;2024-01-10T05:29:17;44.10;;;15.20;;
77010;SDS011;65945;53.148;17.956;2024-01-10T05:31:46;51.80;;;17.90;;
77010;SDS011;65945;53.148;17.956;2024-01-10T05:34:12;52.90;;;19.20;;
77010;SDS011;65945;53.148;17.956;2024-01-10T05:36:39;49.80;;;19.40;;
77010;SDS011;65945;53.148;17.956;2024-01-10T05:39:06;61.30;;;22.00;;
77010;SDS011;65945;53.148;17.956;2024-01-10T05:41:33;61.50;;;20.50;;
77010;SDS011;65945;53.148;17.956;2024-01-10T05:43:59;45.50;;;16.60;;
77010;SDS011;65945;53.148;17.956;2024-01-10T05:46:26;53.00;;;20.20;;
77010;SDS011;65945;53.148;17.956;2024-01-10T05:48:54;65.20;;;21.70;;
77010;SDS011;65945;53.148;17.956;2024-01-10T05:51:21;54.60;;;19.60;;
77010;SDS011;65945;53.148;17.956;2024-01-10T05:53:47;67.90;;;22.30;;
77010;SDS011;65945;53.148;17.956;2024-01-10T05:56:14;62.50;;;23.80;;
77010;SDS011;65945;53.148;17.956;2024-01-10T05:58:41;48.70;;;18.20;;
77010;SDS011;65945;53.148;17.956;2024-01-10T06:01:07;65.60;;;22.80;;
77010;SDS011;65945;53.148;17.956;2024-01-10T06:03:36;57.00;;;20.50;;
77010;SDS011;65945;53.148;17.956;2024-01-10T06:06:03;49.90;;;17.80;;
77010;SDS011;65945;53.148;17.956;2024-01-10T06:08:30;44.70;;;15.60;;
77010;SDS011;65945;53.148;17.956;2024-01-10T06:10:57;42.00;;;15.00;;
77010;SDS011;65945;53.148;17.956;2024-01-10T06:13:23;51.70;;;19.20;;
77010;SDS011;65945;53.148;17.956;2024-01-10T06:15:50;59.90;;;20.90;;
77010;SDS011;65945;53.148;17.956;2024-01-10T06:18:17;51.80;;;19.20;;
77010;SDS011;65945;53.148;17.956;2024-01-10T06:20:43;50.20;;;19.20;;
77010;SDS011;65945;53.148;17.956;2024-01-10T06:23:10;54.30;;;18.70;;
77010;SDS011;65945;53.148;17.956;2024-01-10T06:25:37;52.00;;;19.60;;
77010;SDS011;65945;53.148;17.956;2024-01-10T06:28:03;53.30;;;19.90;;
77010;SDS011;65945;53.148;17.956;2024-01-10T06:30:30;53.60;;;17.90;;
77010;SDS011;65945;53.148;17.956;2024-01-10T06:32:57;50.80;;;18.70;;
77010;SDS011;65945;53.148;17.956;2024-01-10T06:35:24;53.70;;;18.80;;
77010;SDS011;65945;53.148;17.956;2024-01-10T06:37:50;51.30;;;19.00;;
77010;SDS011;65945;53.148;17.956;2024-01-10T06:40:17;46.50;;;16.00;;
77010;SDS011;65945;53.148;17.956;2024-01-10T06:42:44;58.50;;;20.20;;
77010;SDS011;65945;53.148;17.956;2024-01-10T06:45:10;49.00;;;17.50;;
77010;SDS011;65945;53.148;17.956;2024-01-10T06:47:38;42.10;;;16.00;;
77010;SDS011;65945;53.148;17.956;2024-01-10T06:50:05;41.90;;;13.30;;
77010;SDS011;65945;53.148;17.956;2024-01-10T06:52:32;52.00;;;19.60;;
77010;SDS011;65945;53.148;17.956;2024-01-10T06:54:59;64.30;;;21.40;;
77010;SDS011;65945;53.148;17.956;2024-01-10T06:57:26;49.90;;;16.80;;
77010;SDS011;65945;53.148;17.956;2024-01-10T06:59:53;52.80;;;19.10;;
77010;SDS011;65945;53.148;17.956;2024-01-10T07:02:19;53.90;;;18.70;;
77010;SDS011;65945;53.148;17.956;2024-01-10T07:04:46;48.50;;;17.20;;
77010;SDS011;65945;53.148;17.956;2024-01-10T07:07:14;48.50;;;15.80;;
77010;SDS011;65945;53.148;17.956;2024-01-10T07:09:41;41.90;;;16.00;;
77010;SDS011;65945;53.148;17.956;2024-01-10T07:12:07;45.60;;;17.70;;
77010;SDS011;65945;53.148;17.956;2024-01-10T07:14:34;47.60;;;16.80;;
77010;SDS011;65945;53.148;17.956;2024-01-10T07:17:01;40.60;;;15.70;;
77010;SDS011;65945;53.148;17.956;2024-01-10T07:19:28;38.30;;;15.50;;
77010;SDS011;65945;53.148;17.956;2024-01-10T07:21:55;49.00;;;18.40;;
77010;SDS011;65945;53.148;17.956;2024-01-10T07:24:22;44.90;;;17.10;;
77010;SDS011;65945;53.148;17.956;2024-01-10T07:26:48;47.20;;;18.90;;
77010;SDS011;65945;53.148;17.956;2024-01-10T07:29:15;32.60;;;11.30;;
77010;SDS011;65945;53.148;17.956;2024-01-10T07:31:41;47.30;;;16.50;;
77010;SDS011;65945;53.148;17.956;2024-01-10T07:34:08;51.20;;;16.50;;
77010;SDS011;65945;53.148;17.956;2024-01-10T07:36:41;46.40;;;18.10;;
77010;SDS011;65945;53.148;17.956;2024-01-10T07:39:11;33.80;;;12.50;;
77010;SDS011;65945;53.148;17.956;2024-01-10T07:41:42;40.00;;;16.40;;
77010;SDS011;65945;53.148;17.956;2024-01-10T07:44:08;39.60;;;13.20;;
77010;SDS011;65945;53.148;17.956;2024-01-10T07:46:35;38.60;;;15.80;;
77010;SDS011;65945;53.148;17.956;2024-01-10T07:49:04;42.10;;;17.90;;
77010;SDS011;65945;53.148;17.956;2024-01-10T07:51:31;30.90;;;10.90;;
77010;SDS011;65945;53.148;17.956;2024-01-10T07:53:59;34.30;;;13.90;;
77010;SDS011;65945;53.148;17.956;2024-01-10T07:56:26;36.40;;;15.80;;
77010;SDS011;65945;53.148;17.956;2024-01-10T07:58:52;44.00;;;18.80;;
77010;SDS011;65945;53.148;17.956;2024-01-10T08:01:19;42.40;;;16.50;;
77010;SDS011;65945;53.148;17.956;2024-01-10T08:03:46;42.60;;;17.00;;
77010;SDS011;65945;53.148;17.956;2024-01-10T08:06:12;47.40;;;17.10;;
77010;SDS011;65945;53.148;17.956;2024-01-10T08:08:40;32.30;;;12.10;;
77010;SDS011;65945;53.148;17.956;2024-01-10T08:11:06;35.20;;;15.90;;
77010;SDS011;65945;53.148;17.956;2024-01-10T08:13:33;41.90;;;15.00;;
77010;SDS011;65945;53.148;17.956;2024-01-10T08:15:59;31.50;;;13.20;;
77010;SDS011;65945;53.148;17.956;2024-01-10T08:18:26;54.30;;;19.20;;
77010;SDS011;65945;53.148;17.956;2024-01-10T08:20:53;46.80;;;20.00;;
77010;SDS011;65945;53.148;17.956;2024-01-10T08:23:21;37.10;;;13.80;;
77010;SDS011;65945;53.148;17.956;2024-01-10T08:25:48;37.30;;;15.20;;
77010;SDS011;65945;53.148;17.956;2024-01-10T08:28:14;51.80;;;20.20;;
77010;SDS011;65945;53.148;17.956;2024-01-10T08:30:41;38.90;;;14.00;;
77010;SDS011;65945;53.148;17.956;2024-01-10T08:33:08;40.60;;;16.10;;
77010;SDS011;65945;53.148;17.956;2024-01-10T08:35:35;35.40;;;14.70;;
77010;SDS011;65945;53.148;17.956;2024-01-10T08:38:01;36.40;;;14.60;;
77010;SDS011;65945;53.148;17.956;2024-01-10T08:40:30;33.60;;;14.10;;
77010;SDS011;65945;53.148;17.956;2024-01-10T08:42:57;31.80;;;14.20;;
77010;SDS011;65945;53.148;17.956;2024-01-10T08:45:24;39.40;;;15.10;;
77010;SDS011;65945;53.148;17.956;2024-01-10T08:47:51;36.90;;;13.20;;
77010;SDS011;65945;53.148;17.956;2024-01-10T08:50:17;43.20;;;16.40;;
77010;SDS011;65945;53.148;17.956;2024-01-10T08:52:44;44.70;;;16.10;;
77010;SDS011;65945;53.148;17.956;2024-01-10T08:55:10;40.90;;;16.40;;
77010;SDS011;65945;53.148;17.956;2024-01-10T08:57:37;34.90;;;14.00;;
77010;SDS011;65945;53.148;17.956;2024-01-10T09:00:04;29.90;;;12.50;;
77010;SDS011;65945;53.148;17.956;2024-01-10T09:02:33;43.90;;;16.10;;
77010;SDS011;65945;53.148;17.956;2024-01-10T09:05:03;26.30;;;9.30;;
77010;SDS011;65945;53.148;17.956;2024-01-10T09:07:30;34.00;;;14.00;;
77010;SDS011;65945;53.148;17.956;2024-01-10T09:09:57;31.60;;;12.50;;
77010;SDS011;65945;53.148;17.956;2024-01-10T09:12:23;49.60;;;20.50;;
77010;SDS011;65945;53.148;17.956;2024-01-10T09:14:50;38.60;;;15.90;;
77010;SDS011;65945;53.148;17.956;2024-01-10T09:17:17;28.10;;;11.70;;
77010;SDS011;65945;53.148;17.956;2024-01-10T09:19:43;28.80;;;11.00;;
77010;SDS011;65945;53.148;17.956;2024-01-10T09:22:10;23.80;;;10.00;;
77010;SDS011;65945;53.148;17.956;2024-01-10T09:24:36;32.10;;;11.70;;
77010;SDS011;65945;53.148;17.956;2024-01-10T09:27:03;28.90;;;11.40;;
77010;SDS011;65945;53.148;17.956;2024-01-10T09:29:30;32.40;;;11.90;;
77010;SDS011;65945;53.148;17.956;2024-01-10T09:31:57;30.00;;;13.50;;
77010;SDS011;65945;53.148;17.956;2024-01-10T09:34:24;36.90;;;16.50;;
77010;SDS011;65945;53.148;17.956;2024-01-10T09:36:51;24.10;;;11.10;;
77010;SDS011;65945;53.148;17.956;2024-01-10T09:39:18;38.60;;;15.30;;
77010;SDS011;65945;53.148;17.956;2024-01-10T09:41:48;28.30;;;12.90;;
77010;SDS011;65945;53.148;17.956;2024-01-10T09:44:18;35.40;;;15.10;;
77010;SDS011;65945;53.148;17.956;2024-01-10T09:46:49;31.00;;;13.60;;
77010;SDS011;65945;53.148;17.956;2024-01-10T09:49:18;27.30;;;13.20;;
77010;SDS011;65945;53.148;17.956;2024-01-10T09:51:48;26.70;;;11.20;;
77010;SDS011;65945;53.148;17.956;2024-01-10T09:54:16;27.40;;;13.30;;
77010;SDS011;65945;53.148;17.956;2024-01-10T09:56:42;28.20;;;11.70;;
77010;SDS011;65945;53.148;17.956;2024-01-10T09:59:09;25.70;;;10.30;;
77010;SDS011;65945;53.148;17.956;2024-01-10T10:01:37;30.80;;;12.70;;
77010;SDS011;65945;53.148;17.956;2024-01-10T10:04:06;33.60;;;13.20;;
77010;SDS011;65945;53.148;17.956;2024-01-10T10:06:35;29.50;;;11.80;;
77010;SDS011;65945;53.148;17.956;2024-01-10T10:09:02;35.10;;;13.90;;
77010;SDS011;65945;53.148;17.956;2024-01-10T10:11:29;21.40;;;9.30;;
77010;SDS011;65945;53.148;17.956;2024-01-10T10:13:55;30.50;;;12.60;;
77010;SDS011;65945;53.148;17.956;2024-01-10T10:16:23;30.30;;;12.80;;
77010;SDS011;65945;53.148;17.956;2024-01-10T10:18:53;36.70;;;14.80;;
77010;SDS011;65945;53.148;17.956;2024-01-10T10:21:26;34.10;;;13.90;;
77010;SDS011;65945;53.148;17.956;2024-01-10T10:23:57;31.40;;;12.60;;
77010;SDS011;65945;53.148;17.956;2024-01-10T10:26:26;34.00;;;13.90;;
77010;SDS011;65945;53.148;17.956;2024-01-10T10:28:53;27.40;;;11.10;;
77010;SDS011;65945;53.148;17.956;2024-01-10T10:31:20;24.10;;;8.80;;
77010;SDS011;65945;53.148;17.956;2024-01-10T10:33:48;29.40;;;12.40;;
77010;SDS011;65945;53.148;17.956;2024-01-10T10:36:19;20.80;;;9.10;;
77010;SDS011;65945;53.148;17.956;2024-01-10T10:38:47;35.40;;;13.40;;
77010;SDS011;65945;53.148;17.956;2024-01-10T10:41:15;28.00;;;11.70;;
77010;SDS011;65945;53.148;17.956;2024-01-10T10:43:42;17.30;;;7.00;;
77010;SDS011;65945;53.148;17.956;2024-01-10T10:46:09;29.80;;;10.90;;
77010;SDS011;65945;53.148;17.956;2024-01-10T10:48:38;22.80;;;8.40;;
77010;SDS011;65945;53.148;17.956;2024-01-10T10:51:07;23.40;;;8.20;;
77010;SDS011;65945;53.148;17.956;2024-01-10T10:53:35;25.40;;;10.80;;
77010;SDS011;65945;53.148;17.956;2024-01-10T10:56:04;24.90;;;10.30;;
77010;SDS011;65945;53.148;17.956;2024-01-10T10:58:33;26.00;;;10.70;;
77010;SDS011;65945;53.148;17.956;2024-01-10T11:01:05;28.50;;;11.90;;
77010;SDS011;65945;53.148;17.956;2024-01-10T11:03:34;31.00;;;10.90;;
77010;SDS011;65945;53.148;17.956;2024-01-10T11:06:06;28.90;;;10.60;;
77010;SDS011;65945;53.148;17.956;2024-01-10T11:08:43;23.00;;;9.10;;
77010;SDS011;65945;53.148;17.956;2024-01-10T11:11:25;22.40;;;8.30;;
77010;SDS011;65945;53.148;17.956;2024-01-10T11:16:50;23.80;;;9.60;;
77010;SDS011;65945;53.148;17.956;2024-01-10T11:19:58;31.60;;;10.20;;
77010;SDS011;65945;53.148;17.956;2024-01-10T11:22:59;25.50;;;10.00;;
77010;SDS011;65945;53.148;17.956;2024-01-10T11:25:30;23.20;;;8.40;;
77010;SDS011;65945;53.148;17.956;2024-01-10T11:27:57;19.80;;;7.70;;
77010;SDS011;65945;53.148;17.956;2024-01-10T11:30:33;21.40;;;7.80;;
77010;SDS011;65945;53.148;17.956;2024-01-10T11:33:02;15.40;;;6.00;;
77010;SDS011;65945;53.148;17.956;2024-01-10T11:38:47;21.20;;;7.30;;
77010;SDS011;65945;53.148;17.956;2024-01-10T11:46:52;19.10;;;6.60;;
77010;SDS011;65945;53.148;17.956;2024-01-10T11:49:19;16.50;;;6.30;;
77010;SDS011;65945;53.148;17.956;2024-01-10T11:51:48;21.70;;;8.00;;
77010;SDS011;65945;53.148;17.956;2024-01-10T11:57:02;20.30;;;7.50;;
77010;SDS011;65945;53.148;17.956;2024-01-10T11:59:29;20.60;;;8.20;;
77010;SDS011;65945;53.148;17.956;2024-01-10T12:01:57;24.20;;;9.00;;
77010;SDS011;65945;53.148;17.956;2024-01-10T12:04:23;18.20;;;7.90;;
77010;SDS011;65945;53.148;17.956;2024-01-10T12:06:52;23.30;;;8.90;;
77010;SDS011;65945;53.148;17.956;2024-01-10T12:09:19;19.90;;;8.60;;
77010;SDS011;65945;53.148;17.956;2024-01-10T12:11:45;28.70;;;10.90;;
77010;SDS011;65945;53.148;17.956;2024-01-10T12:14:12;24.90;;;7.90;;
77010;SDS011;65945;53.148;17.956;2024-01-10T12:16:39;24.60;;;8.80;;
77010;SDS011;65945;53.148;17.956;2024-01-10T12:19:05;23.70;;;7.90;;
77010;SDS011;65945;53.148;17.956;2024-01-10T12:21:32;29.20;;;9.90;;
77010;SDS011;65945;53.148;17.956;2024-01-10T12:23:59;24.60;;;9.90;;
77010;SDS011;65945;53.148;17.956;2024-01-10T12:26:25;27.20;;;10.20;;
77010;SDS011;65945;53.148;17.956;2024-01-10T12:28:55;27.70;;;10.50;;
77010;SDS011;65945;53.148;17.956;2024-01-10T12:31:24;19.20;;;6.60;;
77010;SDS011;65945;53.148;17.956;2024-01-10T12:33:57;23.90;;;7.60;;
77010;SDS011;65945;53.148;17.956;2024-01-10T12:36:25;25.70;;;9.70;;
77010;SDS011;65945;53.148;17.956;2024-01-10T12:38:52;20.80;;;7.90;;
77010;SDS011;65945;53.148;17.956;2024-01-10T12:41:18;23.60;;;8.80;;
77010;SDS011;65945;53.148;17.956;2024-01-10T12:43:52;25.10;;;10.10;;
77010;SDS011;65945;53.148;17.956;2024-01-10T12:46:21;18.70;;;7.10;;
77010;SDS011;65945;53.148;17.956;2024-01-10T12:49:03;19.20;;;7.90;;
77010;SDS011;65945;53.148;17.956;2024-01-10T12:51:33;17.10;;;6.50;;
77010;SDS011;65945;53.148;17.956;2024-01-10T12:54:03;18.60;;;7.50;;
77010;SDS011;65945;53.148;17.956;2024-01-10T12:56:33;19.30;;;7.40;;
77010;SDS011;65945;53.148;17.956;2024-01-10T12:59:01;11.30;;;4.10;;
77010;SDS011;65945;53.148;17.956;2024-01-10T13:01:28;20.90;;;7.40;;
77010;SDS011;65945;53.148;17.956;2024-01-10T13:03:54;17.40;;;6.80;;
77010;SDS011;65945;53.148;17.956;2024-01-10T13:06:22;17.30;;;6.80;;
77010;SDS011;65945;53.148;17.956;2024-01-10T13:08:50;21.40;;;8.10;;
77010;SDS011;65945;53.148;17.956;2024-01-10T13:11:17;21.80;;;7.40;;
77010;SDS011;65945;53.148;17.956;2024-01-10T13:13:44;17.40;;;6.30;;
77010;SDS011;65945;53.148;17.956;2024-01-10T13:16:10;17.60;;;7.60;;
77010;SDS011;65945;53.148;17.956;2024-01-10T13:18:37;23.00;;;9.10;;
77010;SDS011;65945;53.148;17.956;2024-01-10T13:21:05;22.50;;;10.10;;
77010;SDS011;65945;53.148;17.956;2024-01-10T13:23:32;20.90;;;9.40;;
77010;SDS011;65945;53.148;17.956;2024-01-10T13:26:00;17.60;;;6.70;;
77010;SDS011;65945;53.148;17.956;2024-01-10T13:28:27;15.40;;;5.50;;
77010;SDS011;65945;53.148;17.956;2024-01-10T13:30:54;19.60;;;8.30;;
77010;SDS011;65945;53.148;17.956;2024-01-10T13:33:24;26.70;;;9.50;;
77010;SDS011;65945;53.148;17.956;2024-01-10T13:35:52;21.50;;;8.80;;
77010;SDS011;65945;53.148;17.956;2024-01-10T13:38:19;25.60;;;11.20;;
77010;SDS011;65945;53.148;17.956;2024-01-10T13:40:46;31.40;;;11.60;;
77010;SDS011;65945;53.148;17.956;2024-01-10T13:43:13;19.30;;;6.30;;
77010;SDS011;65945;53.148;17.956;2024-01-10T13:45:39;25.50;;;10.10;;
77010;SDS011;65945;53.148;17.956;2024-01-10T13:48:06;23.00;;;9.90;;
77010;SDS011;65945;53.148;17.956;2024-01-10T13:50:33;23.30;;;9.20;;
77010;SDS011;65945;53.148;17.956;2024-01-10T13:53:00;20.80;;;9.30;;
77010;SDS011;65945;53.148;17.956;2024-01-10T13:55:27;18.90;;;8.70;;
77010;SDS011;65945;53.148;17.956;2024-01-10T13:57:53;15.20;;;6.20;;
77010;SDS011;65945;53.148;17.956;2024-01-10T14:00:22;26.50;;;12.60;;
77010;SDS011;65945;53.148;17.956;2024-01-10T14:02:49;20.40;;;8.30;;
77010;SDS011;65945;53.148;17.956;2024-01-10T14:05:15;25.40;;;10.00;;
77010;SDS011;65945;53.148;17.956;2024-01-10T14:07:42;30.60;;;13.40;;
77010;SDS011;65945;53.148;17.956;2024-01-10T14:10:12;30.10;;;11.80;;
77010;SDS011;65945;53.148;17.956;2024-01-10T14:12:39;28.50;;;12.20;;
77010;SDS011;65945;53.148;17.956;2024-01-10T14:15:06;32.10;;;13.60;;
77010;SDS011;65945;53.148;17.956;2024-01-10T14:17:33;34.00;;;11.60;;
77010;SDS011;65945;53.148;17.956;2024-01-10T14:19:59;34.60;;;13.50;;
77010;SDS011;65945;53.148;17.956;2024-01-10T14:22:26;27.40;;;10.90;;
77010;SDS011;65945;53.148;17.956;2024-01-10T14:24:54;30.10;;;12.60;;
77010;SDS011;65945;53.148;17.956;2024-01-10T14:27:21;27.70;;;9.80;;